Foyil, Oklahoma
Current Conditions -  °F | °C
As of 10:35 AM on Wednesday 26 Nov 2014 (Local Time) from KGCM Reporting Station
Clear Clear  
Wind Chill: 50°   Ceiling: Unl
Heat Index: 50°   Visibility: 10mi
Dew Point: 32°   Wind: 8mph
Humidity: 50%   Direction: 320°NW
Pressure: 30.13"   Gusts: NA
Location:  36.43°N, 95.52°W
Report Text: KGCM 261635Z AUTO 32007KT 10SM CLR 10/00 A3013 RMK AO2
Loading
Personal Weather Stations






























Interactive Weather Map New forecast layout! Learn more

10-Day Weather Forecast

Advertisements
Track Severe Weather on mobile